createdAt,value
2022-10-23T00:02:24.748Z,99929.47
2022-10-23T00:05:30.585Z,99922.53
2022-10-23T00:08:37.906Z,99933.41
2022-10-23T00:11:45.376Z,99929.13
2022-10-23T00:14:49.161Z,99929.78
2022-10-23T00:18:00.922Z,99926.69
2022-10-23T00:21:07.103Z,99911.09
2022-10-23T00:24:11.095Z,99907.16
2022-10-23T00:27:17.706Z,99897.78
2022-10-23T00:30:21.567Z,99899.91
2022-10-23T00:33:28.997Z,99895.78
2022-10-23T00:36:32.815Z,99907.59
2022-10-23T00:39:36.572Z,99891.19
2022-10-23T00:42:41.588Z,99901.53
2022-10-23T00:45:45.623Z,99907.97
2022-10-23T00:49:00.951Z,99901.34
2022-10-23T00:52:08.363Z,99883.31
2022-10-23T00:55:16.113Z,99889.00
2022-10-23T00:58:21.617Z,99897.75
2022-10-23T01:01:31.634Z,99898.91
2022-10-23T01:04:40.585Z,99893.81
2022-10-23T01:07:51.795Z,99890.34
2022-10-23T01:11:05.017Z,99886.56
2022-10-23T01:14:21.841Z,99885.75
2022-10-23T01:17:30.313Z,99886.38
2022-10-23T01:20:43.873Z,99905.16
2022-10-23T01:24:11.092Z,99900.88
2022-10-23T01:27:28.651Z,99909.41
2022-10-23T01:30:34.081Z,99899.25
2022-10-23T01:33:42.316Z,99876.19
2022-10-23T01:36:52.222Z,99881.81
2022-10-23T01:40:02.477Z,99881.16
2022-10-23T01:43:14.541Z,99875.56
2022-10-23T01:46:19.223Z,99880.81
2022-10-23T01:49:25.473Z,99878.44
2022-10-23T01:52:32.986Z,99890.41
2022-10-23T01:58:59.421Z,99868.38
2022-10-23T02:02:08.300Z,99868.59
2022-10-23T02:05:16.325Z,99873.19
2022-10-23T02:08:20.003Z,99882.41
2022-10-23T02:11:23.989Z,99871.56
2022-10-23T02:14:40.202Z,99867.31
2022-10-23T02:17:51.149Z,99864.25
2022-10-23T02:20:57.716Z,99880.06
2022-10-23T02:24:06.883Z,99880.03
2022-10-23T02:27:18.732Z,99879.47
2022-10-23T02:30:31.437Z,99892.28
2022-10-23T02:33:46.161Z,99899.25
2022-10-23T02:36:50.635Z,99896.53
2022-10-23T02:39:56.765Z,99899.44
2022-10-23T02:43:03.690Z,99913.75
2022-10-23T02:46:19.157Z,99924.34
2022-10-23T02:49:30.795Z,99912.09
2022-10-23T02:52:42.811Z,99914.53
2022-10-23T02:56:01.344Z,99936.88
2022-10-23T02:59:12.373Z,99924.59
2022-10-23T03:02:25.547Z,99933.66
2022-10-23T03:05:33.910Z,99929.78
2022-10-23T03:08:45.652Z,99917.72
2022-10-23T03:11:49.257Z,99918.09
2022-10-23T03:14:52.997Z,99908.38
2022-10-23T03:18:00.386Z,99912.91
2022-10-23T03:21:03.970Z,99915.06
2022-10-23T03:24:10.706Z,99909.56
2022-10-23T03:27:19.035Z,99923.25
2022-10-23T03:30:22.645Z,99920.28
2022-10-23T03:33:35.946Z,99925.13
2022-10-23T03:36:48.291Z,99933.91
2022-10-23T03:39:52.342Z,99936.63
2022-10-23T03:42:55.981Z,99932.75
2022-10-23T03:46:01.034Z,99921.25
2022-10-23T03:49:06.384Z,99920.28
2022-10-23T03:52:10.227Z,99929.31
2022-10-23T03:55:14.304Z,99934.50
2022-10-23T03:58:17.952Z,99942.84
2022-10-23T04:01:22.419Z,99934.44
2022-10-23T04:04:27.936Z,99933.25
2022-10-23T04:07:31.519Z,99917.97
2022-10-23T04:10:38.680Z,99926.16
2022-10-23T04:13:42.117Z,99932.09
2022-10-23T04:16:45.812Z,99937.03
2022-10-23T04:19:50.952Z,99954.94
2022-10-23T04:22:54.513Z,99952.50
2022-10-23T04:25:58.883Z,99958.09
2022-10-23T04:29:03.343Z,99952.84
2022-10-23T04:32:08.716Z,99951.50
2022-10-23T04:35:13.994Z,99942.97
2022-10-23T04:38:17.805Z,99946.22
2022-10-23T04:41:21.585Z,99939.97
2022-10-23T04:44:25.297Z,99941.97
2022-10-23T04:47:29.092Z,99939.69
2022-10-23T04:50:36.685Z,99947.78
2022-10-23T04:54:03.186Z,99950.41
2022-10-23T04:57:33.213Z,99941.53
2022-10-23T05:00:40.231Z,99945.63
2022-10-23T05:03:45.502Z,99947.63
2022-10-23T05:06:51.666Z,99954.84
2022-10-23T05:10:09.099Z,99960.72
2022-10-23T05:13:31.676Z,99959.28
2022-10-23T05:16:39.385Z,99957.94
2022-10-23T05:19:45.873Z,99957.72
2022-10-23T05:22:53.362Z,99945.00
2022-10-23T05:26:03.451Z,99957.50
2022-10-23T05:29:08.741Z,99952.03
2022-10-23T05:32:15.975Z,99971.59
2022-10-23T05:35:23.882Z,99973.00
2022-10-23T05:38:34.256Z,99970.81
2022-10-23T05:41:42.566Z,99975.72
2022-10-23T05:44:46.242Z,99981.25
2022-10-23T05:48:29.972Z,99994.25
2022-10-23T05:51:49.824Z,99994.03
2022-10-23T05:54:57.676Z,100010.97
2022-10-23T05:58:40.346Z,100015.41
2022-10-23T06:01:54.319Z,100017.16
2022-10-23T06:05:18.566Z,100019.22
2022-10-23T06:08:48.512Z,100021.19
2022-10-23T06:11:54.584Z,100026.78
2022-10-23T06:14:59.582Z,100030.06
2022-10-23T06:18:23.465Z,100016.00
2022-10-23T06:21:39.515Z,100020.59
2022-10-23T06:24:43.894Z,100028.63
2022-10-23T06:27:52.925Z,100036.06
2022-10-23T06:30:56.783Z,100032.19
2022-10-23T06:34:01.535Z,100043.25
2022-10-23T06:37:07.716Z,100046.38
2022-10-23T06:40:31.757Z,100055.78
2022-10-23T06:43:40.286Z,100064.38
2022-10-23T06:47:02.135Z,100071.72
2022-10-23T06:50:25.372Z,100078.66
2022-10-23T06:53:29.836Z,100075.19
2022-10-23T06:56:42.637Z,100077.59
2022-10-23T06:59:48.902Z,100089.63
2022-10-23T07:02:54.336Z,100097.53
2022-10-23T07:06:02.383Z,100103.31
2022-10-23T07:09:06.536Z,100107.84
2022-10-23T07:12:29.906Z,100106.16
2022-10-23T07:15:53.725Z,100104.97
2022-10-23T07:19:02.133Z,100103.69
2022-10-23T07:22:05.906Z,100098.72
2022-10-23T07:25:27.703Z,100103.84
2022-10-23T07:28:31.567Z,100097.31
2022-10-23T07:31:36.794Z,100106.00
2022-10-23T07:38:33.794Z,100092.88
2022-10-23T07:41:38.823Z,100096.63
2022-10-23T07:44:42.546Z,100095.59
2022-10-23T07:47:52.197Z,100094.78
2022-10-23T07:51:01.078Z,100093.25
2022-10-23T07:54:05.230Z,100098.53
2022-10-23T07:57:28.863Z,100091.19
2022-10-23T08:00:43.324Z,100101.72
2022-10-23T08:04:03.182Z,100096.38
2022-10-23T08:07:07.718Z,100096.66
2022-10-23T08:10:16.936Z,100099.50
2022-10-23T08:13:22.533Z,100097.94
2022-10-23T08:16:35.897Z,100089.22
2022-10-23T08:19:41.167Z,100092.13
2022-10-23T08:22:44.918Z,100088.72
2022-10-23T08:25:58.790Z,100097.41
2022-10-23T08:29:03.224Z,100104.09
2022-10-23T08:32:07.454Z,100088.38
2022-10-23T08:35:29.445Z,100077.66
2022-10-23T08:38:35.836Z,100083.66
2022-10-23T08:41:44.144Z,100082.97
2022-10-23T08:45:00.525Z,100082.34
2022-10-23T08:48:14.962Z,100077.66
2022-10-23T08:51:44.026Z,100091.81
2022-10-23T08:54:58.915Z,100073.09
2022-10-23T08:58:06.916Z,100085.34
2022-10-23T09:01:28.712Z,100085.25
2022-10-23T09:04:33.385Z,100089.56
2022-10-23T09:07:44.716Z,100083.88
2022-10-23T09:11:02.751Z,100086.78
2022-10-23T09:14:30.485Z,100085.81
2022-10-23T09:17:38.158Z,100088.41
2022-10-23T09:20:45.583Z,100088.13
2022-10-23T09:23:50.676Z,100086.06
2022-10-23T09:26:55.749Z,100085.72
2022-10-23T09:29:59.582Z,100089.50
2022-10-23T09:33:15.442Z,100080.56
2022-10-23T09:36:23.732Z,100094.59
2022-10-23T09:39:32.341Z,100076.97
2022-10-23T09:42:36.068Z,100084.28
2022-10-23T09:45:42.672Z,100085.75
2022-10-23T09:49:00.943Z,100074.84
2022-10-23T09:52:24.563Z,100073.47
2022-10-23T09:55:30.687Z,100079.91
2022-10-23T09:58:37.787Z,100071.00
2022-10-23T10:01:49.194Z,100071.41
2022-10-23T10:05:25.685Z,100057.44
2022-10-23T10:08:41.235Z,100061.16
2022-10-23T10:11:51.563Z,100044.75
2022-10-23T10:15:09.804Z,100044.31
2022-10-23T10:18:20.046Z,100046.22
2022-10-23T10:21:29.695Z,100034.16
2022-10-23T10:24:40.544Z,100034.00
2022-10-23T10:27:58.518Z,100038.53
2022-10-23T10:31:12.416Z,100041.34
2022-10-23T10:34:22.652Z,100026.81
2022-10-23T10:37:35.055Z,100031.56
2022-10-23T10:40:44.666Z,100023.94
2022-10-23T10:44:02.725Z,100024.06
2022-10-23T10:47:18.609Z,100008.50
2022-10-23T10:50:32.982Z,100016.25
2022-10-23T10:54:17.562Z,100005.31
2022-10-23T10:57:31.375Z,99999.31
2022-10-23T11:00:36.865Z,99997.06
2022-10-23T11:03:45.942Z,100003.91
2022-10-23T11:06:54.105Z,100011.75
2022-10-23T11:10:01.105Z,100003.19
2022-10-23T11:13:05.935Z,99993.84
2022-10-23T11:16:15.215Z,99989.34
2022-10-23T11:19:24.196Z,99984.84
2022-10-23T11:22:33.758Z,99985.28
2022-10-23T11:26:03.382Z,99989.75
2022-10-23T11:29:30.746Z,99976.28
2022-10-23T11:32:51.922Z,99960.56
2022-10-23T11:36:15.766Z,99964.69
2022-10-23T11:39:23.285Z,99961.91
2022-10-23T11:42:34.141Z,99951.38
2022-10-23T11:45:39.694Z,99952.88
2022-10-23T11:48:47.745Z,99951.63
2022-10-23T11:52:02.276Z,99950.88
2022-10-23T11:55:18.442Z,99940.16
2022-10-23T11:58:32.361Z,99934.78
2022-10-23T12:01:42.981Z,99926.59
2022-10-23T12:04:52.258Z,99932.16
2022-10-23T12:07:58.013Z,99925.78
2022-10-23T12:11:02.226Z,99927.16
2022-10-23T12:14:06.000Z,99930.16
2022-10-23T12:17:31.681Z,99938.06
2022-10-23T12:20:46.778Z,99929.59
2022-10-23T12:24:24.045Z,99924.75
2022-10-23T12:27:35.636Z,99929.31
2022-10-23T12:30:47.355Z,99937.69
2022-10-23T12:34:01.856Z,99925.97
2022-10-23T12:37:28.376Z,99940.13
2022-10-23T12:40:32.346Z,99935.56
2022-10-23T12:43:39.227Z,99940.63
2022-10-23T12:46:47.765Z,99935.41
2022-10-23T12:49:52.664Z,99929.50
2022-10-23T12:52:59.402Z,99924.44
2022-10-23T12:56:06.392Z,99931.22
2022-10-23T12:59:17.403Z,99929.91
2022-10-23T13:02:26.755Z,99927.09
2022-10-23T13:05:31.815Z,99932.91
2022-10-23T13:08:43.202Z,99939.28
2022-10-23T13:12:09.535Z,99933.53
2022-10-23T13:15:18.562Z,99934.41
2022-10-23T13:18:22.247Z,99937.00
2022-10-23T13:21:28.777Z,99936.53
2022-10-23T13:24:34.082Z,99938.91
2022-10-23T13:27:39.373Z,99933.22
2022-10-23T13:30:46.418Z,99941.97
2022-10-23T13:33:52.846Z,99938.91
2022-10-23T13:37:05.695Z,99940.69
2022-10-23T13:40:25.083Z,99938.72
2022-10-23T13:43:30.977Z,99936.28
2022-10-23T13:46:34.797Z,99936.44
2022-10-23T13:49:41.206Z,99935.72
2022-10-23T13:52:45.195Z,99935.31
2022-10-23T13:55:56.370Z,99927.78
2022-10-23T13:59:02.475Z,99929.69
2022-10-23T14:02:19.642Z,99925.50
2022-10-23T14:05:23.472Z,99927.63
2022-10-23T14:08:27.246Z,99924.69
2022-10-23T14:11:32.772Z,99922.81
2022-10-23T14:14:36.566Z,99929.97
2022-10-23T14:17:40.446Z,99920.28
2022-10-23T14:20:44.142Z,99919.47
2022-10-23T14:23:48.436Z,99921.91
2022-10-23T14:26:53.675Z,99916.94
2022-10-23T14:29:57.503Z,99929.97
2022-10-23T14:33:01.215Z,99927.31
2022-10-23T14:36:06.138Z,99933.00
2022-10-23T14:39:09.896Z,99936.16
2022-10-23T14:42:15.616Z,99936.56
2022-10-23T14:45:19.352Z,99929.31
2022-10-23T14:48:23.168Z,99933.72
2022-10-23T14:51:28.923Z,99935.47
2022-10-23T14:54:34.669Z,99936.75
2022-10-23T14:57:39.897Z,99937.91
2022-10-23T15:00:43.615Z,99940.44
2022-10-23T15:03:47.422Z,99937.13
2022-10-23T15:06:51.166Z,99937.53
2022-10-23T15:09:55.722Z,99948.41
2022-10-23T15:13:00.786Z,99936.72
2022-10-23T15:16:06.385Z,99939.34
2022-10-23T15:19:13.684Z,99949.19
2022-10-23T15:22:21.169Z,99957.91
2022-10-23T15:25:24.987Z,99952.91
2022-10-23T15:28:31.172Z,99953.94
2022-10-23T15:31:54.913Z,99948.44
2022-10-23T15:35:00.320Z,99951.63
2022-10-23T15:38:04.034Z,99955.84
2022-10-23T15:41:16.755Z,99958.34
2022-10-23T15:44:24.413Z,99970.84
2022-10-23T15:47:28.063Z,99970.75
2022-10-23T15:50:31.784Z,99976.25
2022-10-23T15:53:35.467Z,99978.16
2022-10-23T15:56:39.123Z,99985.88
2022-10-23T15:59:44.356Z,99995.09
2022-10-23T16:02:48.178Z,99989.09
2022-10-23T16:05:52.206Z,100002.56
2022-10-23T16:08:55.846Z,100002.72
2022-10-23T16:11:59.522Z,100011.75
2022-10-23T16:15:05.027Z,100010.44
2022-10-23T16:18:09.126Z,100005.16
2022-10-23T16:21:19.382Z,100020.63
2022-10-23T16:27:26.562Z,100019.28
2022-10-23T16:30:31.902Z,100020.66
2022-10-23T16:33:38.755Z,100021.91
2022-10-23T16:36:42.577Z,100021.72
2022-10-23T16:39:46.792Z,100030.06
2022-10-23T16:43:09.006Z,100032.53
2022-10-23T16:46:19.703Z,100046.06
2022-10-23T16:49:23.422Z,100055.06
2022-10-23T16:52:27.902Z,100063.72
2022-10-23T16:55:31.637Z,100072.28
2022-10-23T16:58:36.266Z,100074.34
2022-10-23T17:01:41.881Z,100095.22
2022-10-23T17:04:48.265Z,100101.78
2022-10-23T17:07:51.956Z,100098.06
2022-10-23T17:11:06.042Z,100107.91
2022-10-23T17:14:13.685Z,100112.19
2022-10-23T17:17:18.846Z,100120.19
2022-10-23T17:20:22.795Z,100118.75
2022-10-23T17:23:26.543Z,100116.88
2022-10-23T17:26:31.026Z,100120.59
2022-10-23T17:29:34.748Z,100123.03
2022-10-23T17:32:39.883Z,100124.47
2022-10-23T17:35:45.447Z,100126.09
2022-10-23T17:38:49.728Z,100128.75
2022-10-23T17:41:53.597Z,100127.75
2022-10-23T17:44:57.410Z,100129.38
2022-10-23T17:48:02.402Z,100131.84
2022-10-23T17:51:08.563Z,100131.22
2022-10-23T17:54:13.252Z,100135.50
2022-10-23T17:57:16.917Z,100140.00
2022-10-23T18:00:20.702Z,100141.63
2022-10-23T18:03:25.776Z,100139.81
2022-10-23T18:06:32.396Z,100138.16
2022-10-23T18:09:36.057Z,100132.44
2022-10-23T18:12:39.702Z,100131.59
2022-10-23T18:15:43.407Z,100134.50
2022-10-23T18:18:49.555Z,100129.94
2022-10-23T18:21:53.303Z,100134.44
2022-10-23T18:24:57.135Z,100135.47
2022-10-23T18:28:02.478Z,100144.69
2022-10-23T18:31:09.686Z,100136.91
2022-10-23T18:34:20.772Z,100148.34
2022-10-23T18:37:26.791Z,100145.09
2022-10-23T18:40:32.976Z,100153.66
2022-10-23T18:43:43.829Z,100155.06
2022-10-23T18:46:49.256Z,100164.59
2022-10-23T18:49:54.482Z,100154.34
2022-10-23T18:52:58.242Z,100154.75
2022-10-23T18:56:02.115Z,100159.47
2022-10-23T18:59:07.403Z,100150.09
2022-10-23T19:02:12.301Z,100164.13
2022-10-23T19:05:17.603Z,100163.53
2022-10-23T19:08:22.012Z,100160.03
2022-10-23T19:11:27.586Z,100165.34
2022-10-23T19:14:31.296Z,100176.78
2022-10-23T19:17:34.987Z,100169.25
2022-10-23T19:20:40.243Z,100169.38
2022-10-23T19:23:44.816Z,100168.97
2022-10-23T19:26:49.436Z,100168.13
2022-10-23T19:29:55.187Z,100168.13
2022-10-23T19:32:58.924Z,100177.25
2022-10-23T19:36:05.351Z,100184.81
2022-10-23T19:39:09.775Z,100183.66
2022-10-23T19:42:13.902Z,100183.22
2022-10-23T19:45:17.867Z,100178.44
2022-10-23T19:48:21.555Z,100186.19
2022-10-23T19:51:26.685Z,100179.31
2022-10-23T19:54:30.403Z,100190.00
2022-10-23T19:57:35.234Z,100188.78
2022-10-23T20:00:38.958Z,100187.00
2022-10-23T20:03:45.585Z,100189.47
2022-10-23T20:06:50.755Z,100197.19
2022-10-23T20:09:55.046Z,100194.66
2022-10-23T20:13:18.324Z,100203.66
2022-10-23T20:16:25.067Z,100205.97
2022-10-23T20:19:28.906Z,100204.56
2022-10-23T20:22:34.125Z,100194.47
2022-10-23T20:25:38.047Z,100201.41
2022-10-23T20:28:41.788Z,100202.59
2022-10-23T20:31:45.926Z,100205.13
2022-10-23T20:34:49.621Z,100205.31
2022-10-23T20:37:54.891Z,100203.56
2022-10-23T20:41:00.626Z,100204.06
2022-10-23T20:44:05.488Z,100206.78
2022-10-23T20:47:09.216Z,100205.56
2022-10-23T20:50:12.882Z,100209.81
2022-10-23T20:53:18.104Z,100211.84
2022-10-23T20:56:30.130Z,100210.53
2022-10-23T20:59:34.251Z,100223.31
2022-10-23T21:02:37.922Z,100220.66
2022-10-23T21:05:41.676Z,100237.19
2022-10-23T21:08:47.173Z,100232.06
2022-10-23T21:11:51.237Z,100226.59
2022-10-23T21:14:54.966Z,100228.16
2022-10-23T21:18:04.967Z,100226.22
2022-10-23T21:21:20.523Z,100217.09
2022-10-23T21:24:25.645Z,100228.13
2022-10-23T21:27:29.322Z,100231.59
2022-10-23T21:30:33.982Z,100223.66
2022-10-23T21:33:38.794Z,100217.84
2022-10-23T21:37:07.517Z,100215.31
2022-10-23T21:40:12.796Z,100211.88
2022-10-23T21:43:16.422Z,100221.16
2022-10-23T21:46:20.279Z,100216.09
2022-10-23T21:49:23.923Z,100221.13
2022-10-23T21:52:28.026Z,100224.34
2022-10-23T21:55:33.260Z,100229.78
2022-10-23T21:58:37.742Z,100215.88
2022-10-23T22:01:43.310Z,100212.25
2022-10-23T22:04:47.155Z,100211.31
2022-10-23T22:07:50.867Z,100209.69
2022-10-23T22:10:56.242Z,100214.16
2022-10-23T22:14:00.897Z,100212.88
2022-10-23T22:17:05.198Z,100218.25
2022-10-23T22:20:10.326Z,100221.69
2022-10-23T22:23:14.002Z,100221.53
2022-10-23T22:26:25.177Z,100223.94
2022-10-23T22:29:30.683Z,100217.13
2022-10-23T22:32:36.663Z,100216.56
2022-10-23T22:35:40.386Z,100217.03
2022-10-23T22:38:44.652Z,100213.72
2022-10-23T22:41:49.887Z,100222.50
2022-10-23T22:44:56.373Z,100219.19
2022-10-23T22:47:59.958Z,100221.59
2022-10-23T22:51:06.294Z,100225.84
2022-10-23T22:54:12.100Z,100229.31
2022-10-23T22:57:19.509Z,100226.72
2022-10-23T23:00:23.336Z,100233.72
2022-10-23T23:03:29.138Z,100236.88
2022-10-23T23:06:35.041Z,100224.25
2022-10-23T23:09:40.435Z,100237.41
2022-10-23T23:12:45.546Z,100238.75
2022-10-23T23:15:49.487Z,100232.66
2022-10-23T23:18:53.526Z,100230.66
2022-10-23T23:21:57.763Z,100231.31
2022-10-23T23:25:01.435Z,100239.50
2022-10-23T23:28:08.676Z,100246.50
2022-10-23T23:31:18.137Z,100252.66
2022-10-23T23:34:22.316Z,100259.19
2022-10-23T23:37:26.061Z,100259.09
2022-10-23T23:40:29.866Z,100256.91
2022-10-23T23:43:35.300Z,100254.69
2022-10-23T23:46:38.963Z,100255.50
2022-10-23T23:49:42.476Z,100254.75
2022-10-23T23:52:46.126Z,100262.50
2022-10-23T23:55:49.890Z,100256.53
2022-10-23T23:58:55.050Z,100250.41
